Terminal Aerodrome Forecast
Issued by NWS

Home | Current Version | Previous Version | Graphics & Text | Print | Product List | Glossary On
Versions: 1 2 3 4 5 6 7 8 9 10 11 12 13 14 15 16 17
101
FTUS43 KGRB 241133
TAFCWA
TAF
KCWA 241133Z 2412/2512 04003KT 3SM -RA SCT002 OVC010
      TEMPO 2412/2416 1SM -RA BR BKN002
     FM241600 04006KT 4SM -RA OVC008
     FM242000 05008G14KT 5SM -RA OVC008
     FM250200 05009KT 6SM -RA OVC012
     FM251000 06011G19KT P6SM OVC009=

USA.gov is the U.S. government's official web portal to all federal, state and local government web resources and services.